Airfield :
LOGIN :

Register | Disclaimer

   EN    FR    IT 

 










Legend :    VFR   Marginal VFR   IFR   Intensive IFR   Very Intensive IFR
Visi :
Ceiling :
>= 8 km
>= 3000ft
5 to 8 km
1000 to 3000 ft
1500m to 5 km
500 to 1000 ft
800 to 1500m
200 to 500 ft
< 800m
< 200 ft
Symbols :   Thunderstorms  Fog  Heavy snow  Heavy precipitations  Wind > 20 kt
SIGMETs :     Misc.  Thunderstorms  Icing  Turbulence  Mountain Waves  Volcanic Ashes






- Airport Elevation : 502 ft
- IATA code : ORK


EICK - Cork

CURRENT METAR :
  • 231600Z 18018G28KT 150V220 3000 RA OVC003 12/11 Q1012 NOSIG

EXPIRED METARs :
  • 231530Z 18015G26KT 160V220 4500 RA OVC003 12/12 Q1013 NOSIG
  • 231500Z 18016KT 5000 -RA OVC005 12/11 Q1013 NOSIG
  • 231430Z 18015KT 6000 -RADZ BKN012 13/11 Q1013 NOSIG
  • 231400Z 17016G28KT 9999 BKN013 BKN022 13/11 Q1013 NOSIG
  • 231330Z 18016KT 140V200 9000 -RADZ BKN010 BKN021 12/11 Q1014 NOSIG

TAF AMD TAF EICK
Valid from the 23 at 15:00 until the 24 at 12:00 UTC


231535Z 2315/2412 20020G33KT 6000 -DZ SCT003 BKN008
TEMPO 2315/2321 3000 -RADZ BKN003
PROB30
TEMPO 2318/2321 0800 RADZ FG BKN002
BECMG 2321/2323 3000 -RADZ BR SCT002 BKN004
TEMPO 2321/2401 0800 RADZ FG BKN002 SCT018CB
BECMG 2401/2403 23011KT 9999 NSW BKN020
TEMPO 2403/2410 -SHRA FEW018CB
BECMG 2410/2412 23020G30KT
TEMPO 2410/2412 -SHRA SCT018CB
PROB40
TEMPO 2410/2412 4000



MET'MAP, your aeronautical weather chart ! - Copyright ORBIFLY December 2007 - Disclaimer

ORBIFLY MET'MAP TEAM :

Programming & Development : Alexandra Zaïnal
Concept & original design : Baudouin d'Aumeries
Assistance for programming : Marc-Olivier Méhu
Technical & hardware support : Manuel Goepfert

Contact : metmap@orbifly.com




SOURCES & CREDITS :

   NOAA